createdAt,value
2023-04-08T00:02:06.635Z,43.15
2023-04-08T00:04:35.211Z,42.38
2023-04-08T00:07:03.559Z,42.85
2023-04-08T00:09:31.773Z,49.75
2023-04-08T00:12:01.303Z,43.65
2023-04-08T00:14:29.605Z,41.53
2023-04-08T00:16:57.855Z,40.80
2023-04-08T00:19:26.423Z,43.75
2023-04-08T00:21:54.792Z,38.72
2023-04-08T00:24:23.049Z,39.67
2023-04-08T00:26:51.799Z,34.42
2023-04-08T00:29:20.110Z,28.40
2023-04-08T00:31:48.804Z,27.35
2023-04-08T00:34:17.455Z,26.98
2023-04-08T00:36:47.607Z,25.90
2023-04-08T00:39:15.865Z,32.33
2023-04-08T00:41:44.176Z,30.10
2023-04-08T00:44:12.543Z,29.73
2023-04-08T00:46:41.324Z,28.88
2023-04-08T00:49:10.058Z,30.20
2023-04-08T00:51:38.352Z,27.83
2023-04-08T00:54:06.747Z,28.10
2023-04-08T00:56:35.956Z,29.05
2023-04-08T00:59:05.149Z,33.10
2023-04-08T01:01:44.656Z,29.85
2023-04-08T01:04:13.072Z,30.15
2023-04-08T01:06:58.334Z,31.35
2023-04-08T01:09:32.373Z,31.65
2023-04-08T01:12:05.951Z,33.30
2023-04-08T01:14:40.084Z,32.25
2023-04-08T01:17:09.581Z,33.17
2023-04-08T01:19:44.983Z,29.73
2023-04-08T01:22:43.496Z,33.08
2023-04-08T01:25:27.478Z,32.30
2023-04-08T01:27:57.688Z,29.48
2023-04-08T01:30:27.314Z,29.40
2023-04-08T01:32:56.879Z,29.13
2023-04-08T01:35:25.433Z,29.52
2023-04-08T01:37:55.755Z,32.05
2023-04-08T01:40:24.304Z,27.05
2023-04-08T01:42:56.259Z,34.17
2023-04-08T01:45:25.265Z,27.20
2023-04-08T01:47:55.381Z,30.50
2023-04-08T01:50:25.234Z,34.20
2023-04-08T01:52:54.907Z,35.85
2023-04-08T01:55:24.768Z,37.42
2023-04-08T01:57:56.264Z,35.47
2023-04-08T02:00:29.123Z,37.05
2023-04-08T02:02:59.842Z,33.85
2023-04-08T02:05:28.362Z,34.53
2023-04-08T02:07:56.607Z,35.55
2023-04-08T02:10:24.874Z,31.95
2023-04-08T02:12:53.189Z,36.13
2023-04-08T02:15:21.984Z,35.55
2023-04-08T02:18:00.147Z,33.13
2023-04-08T02:20:37.717Z,33.35
2023-04-08T02:23:16.553Z,33.72
2023-04-08T02:25:47.094Z,36.50
2023-04-08T02:28:18.148Z,30.85
2023-04-08T02:30:53.479Z,32.72
2023-04-08T02:33:23.437Z,32.55
2023-04-08T02:35:56.089Z,30.13
2023-04-08T02:38:29.833Z,31.95
2023-04-08T02:40:58.741Z,32.20
2023-04-08T02:43:31.837Z,31.95
2023-04-08T02:46:03.455Z,33.10
2023-04-08T02:48:33.311Z,33.03
2023-04-08T02:51:01.558Z,31.73
2023-04-08T02:53:29.921Z,29.42
2023-04-08T02:55:58.284Z,27.80
2023-04-08T02:58:26.553Z,33.58
2023-04-08T03:00:55.013Z,32.45
2023-04-08T03:03:29.720Z,36.08
2023-04-08T03:05:58.499Z,35.33
2023-04-08T03:08:26.729Z,37.75
2023-04-08T03:10:55.075Z,38.85
2023-04-08T03:13:23.326Z,38.33
2023-04-08T03:15:51.589Z,36.53
2023-04-08T03:18:19.852Z,36.33
2023-04-08T03:20:48.247Z,41.33
2023-04-08T03:23:16.613Z,38.38
2023-04-08T03:25:44.909Z,34.65
2023-04-08T03:28:13.153Z,33.45
2023-04-08T03:30:41.641Z,36.22
2023-04-08T03:33:09.938Z,35.65
2023-04-08T03:35:39.112Z,36.95
2023-04-08T03:38:07.390Z,37.97
2023-04-08T03:40:35.818Z,35.45
2023-04-08T03:43:05.807Z,38.65
2023-04-08T03:45:34.228Z,35.72
2023-04-08T03:48:02.592Z,35.00
2023-04-08T03:50:30.872Z,35.08
2023-04-08T03:52:59.085Z,36.55
2023-04-08T03:55:27.317Z,41.28
2023-04-08T03:57:55.749Z,32.38
2023-04-08T04:00:24.051Z,35.40
2023-04-08T04:02:52.412Z,33.75
2023-04-08T04:05:20.893Z,33.80
2023-04-08T04:07:49.293Z,36.42
2023-04-08T04:10:17.621Z,32.88
2023-04-08T04:12:46.180Z,33.58
2023-04-08T04:15:14.834Z,33.78
2023-04-08T04:17:43.142Z,41.15
2023-04-08T04:20:11.839Z,33.50
2023-04-08T04:22:40.075Z,36.00
2023-04-08T04:25:08.838Z,37.78
2023-04-08T04:27:37.166Z,33.90
2023-04-08T04:30:07.278Z,35.92
2023-04-08T04:32:35.748Z,40.67
2023-04-08T04:35:04.243Z,39.60
2023-04-08T04:37:32.511Z,32.50
2023-04-08T04:40:00.855Z,38.17
2023-04-08T04:42:29.322Z,39.40
2023-04-08T04:44:57.582Z,38.10
2023-04-08T04:47:26.361Z,38.25
2023-04-08T04:49:54.615Z,42.25
2023-04-08T04:52:22.916Z,42.83
2023-04-08T04:54:51.223Z,41.63
2023-04-08T04:57:19.472Z,42.95
2023-04-08T04:59:47.756Z,42.88
2023-04-08T05:02:16.507Z,42.90
2023-04-08T05:04:44.850Z,39.85
2023-04-08T05:07:13.091Z,41.13
2023-04-08T05:09:41.280Z,40.67
2023-04-08T05:12:09.566Z,45.28
2023-04-08T05:14:37.794Z,39.58
2023-04-08T05:17:06.586Z,42.00
2023-04-08T05:19:34.813Z,39.08
2023-04-08T05:22:03.072Z,38.58
2023-04-08T05:24:31.444Z,37.15
2023-04-08T05:26:59.685Z,37.88
2023-04-08T05:29:27.905Z,39.33
2023-04-08T05:31:56.653Z,40.67
2023-04-08T05:34:25.001Z,34.78
2023-04-08T05:36:53.251Z,36.78
2023-04-08T05:39:21.501Z,33.28
2023-04-08T05:41:49.786Z,36.50
2023-04-08T05:44:18.012Z,37.03
2023-04-08T05:46:46.401Z,39.45
2023-04-08T05:49:15.769Z,41.08
2023-04-08T05:51:44.289Z,38.30
2023-04-08T05:54:12.813Z,37.95
2023-04-08T05:56:41.039Z,40.47
2023-04-08T05:59:09.360Z,43.20
2023-04-08T06:01:37.630Z,41.85
2023-04-08T06:04:06.269Z,40.03
2023-04-08T06:06:34.781Z,43.30
2023-04-08T06:09:02.982Z,44.13
2023-04-08T06:11:31.287Z,39.78
2023-04-08T06:13:59.500Z,42.90
2023-04-08T06:16:27.816Z,45.65
2023-04-08T06:18:56.310Z,42.17
2023-04-08T06:21:24.537Z,41.03
2023-04-08T06:23:52.738Z,40.15
2023-04-08T06:26:20.948Z,43.47
2023-04-08T06:28:49.478Z,44.05
2023-04-08T06:31:18.102Z,45.75
2023-04-08T06:33:46.328Z,41.10
2023-04-08T06:36:14.601Z,44.17
2023-04-08T06:38:42.772Z,45.83
2023-04-08T06:41:11.006Z,41.28
2023-04-08T06:43:39.221Z,37.30
2023-04-08T06:46:07.721Z,39.47
2023-04-08T06:48:37.807Z,39.85
2023-04-08T06:51:07.918Z,38.40
2023-04-08T06:53:36.171Z,36.13
2023-04-08T06:56:04.622Z,40.10
2023-04-08T06:58:32.878Z,38.60
2023-04-08T07:01:03.194Z,40.05
2023-04-08T07:03:31.589Z,41.38
2023-04-08T07:05:59.863Z,38.05
2023-04-08T07:08:28.100Z,40.92
2023-04-08T07:10:56.713Z,38.50
2023-04-08T07:13:24.987Z,37.83
2023-04-08T07:15:53.414Z,41.05
2023-04-08T07:18:21.863Z,39.65
2023-04-08T07:20:57.954Z,39.13
2023-04-08T07:23:26.263Z,40.97
2023-04-08T07:25:54.626Z,41.50
2023-04-08T07:28:22.837Z,42.85
2023-04-08T07:30:51.086Z,37.55
2023-04-08T07:33:19.842Z,37.40
2023-04-08T07:35:48.532Z,39.20
2023-04-08T07:38:16.803Z,37.15
2023-04-08T07:40:45.251Z,38.78
2023-04-08T07:43:13.495Z,42.38
2023-04-08T07:45:41.757Z,41.38
2023-04-08T07:48:10.117Z,38.50
2023-04-08T07:51:08.936Z,43.55
2023-04-08T07:53:27.801Z,37.13
2023-04-08T07:55:56.081Z,42.75
2023-04-08T07:58:25.005Z,40.83
2023-04-08T08:00:54.085Z,39.42
2023-04-08T08:03:22.573Z,37.58
2023-04-08T08:05:50.874Z,36.60
2023-04-08T08:08:19.071Z,39.38
2023-04-08T08:10:47.396Z,37.67
2023-04-08T08:13:17.405Z,43.35
2023-04-08T08:15:45.839Z,37.63
2023-04-08T08:18:14.373Z,34.08
2023-04-08T08:20:42.732Z,38.35
2023-04-08T08:23:11.177Z,40.08
2023-04-08T08:25:39.378Z,38.17
2023-04-08T08:28:07.631Z,36.22
2023-04-08T08:30:35.892Z,36.78
2023-04-08T08:33:04.314Z,44.40
2023-04-08T08:35:32.850Z,36.17
2023-04-08T08:38:01.278Z,37.95
2023-04-08T08:40:29.548Z,37.70
2023-04-08T08:42:59.228Z,39.03
2023-04-08T08:45:27.563Z,40.33
2023-04-08T08:47:56.411Z,38.97
2023-04-08T08:50:24.704Z,37.20
2023-04-08T08:52:53.801Z,40.40
2023-04-08T08:55:41.444Z,36.83
2023-04-08T08:58:10.753Z,38.45
2023-04-08T09:00:42.391Z,33.13
2023-04-08T09:03:18.003Z,39.58
2023-04-08T09:05:50.348Z,44.08
2023-04-08T09:08:44.883Z,32.67
2023-04-08T09:11:18.419Z,41.33
2023-04-08T09:13:47.809Z,36.95
2023-04-08T09:16:18.467Z,37.47
2023-04-08T09:18:49.172Z,35.97
2023-04-08T09:21:22.466Z,38.20
2023-04-08T09:23:52.705Z,39.55
2023-04-08T09:26:25.335Z,36.72
2023-04-08T09:29:18.432Z,41.10
2023-04-08T09:31:58.419Z,39.55
2023-04-08T09:34:29.012Z,40.72
2023-04-08T09:36:57.262Z,37.13
2023-04-08T09:39:25.461Z,41.08
2023-04-08T09:41:57.784Z,38.95
2023-04-08T09:44:28.837Z,45.72
2023-04-08T09:47:01.911Z,41.53
2023-04-08T09:49:49.391Z,45.83
2023-04-08T09:52:47.217Z,49.15
2023-04-08T09:55:18.091Z,53.13
2023-04-08T09:58:03.016Z,40.88
2023-04-08T10:00:43.960Z,45.80
2023-04-08T10:03:25.028Z,45.72
2023-04-08T10:05:58.611Z,45.95
2023-04-08T10:10:56.399Z,54.80
2023-04-08T10:13:28.676Z,44.22
2023-04-08T10:16:22.156Z,52.90
2023-04-08T10:18:53.091Z,47.80
2023-04-08T10:21:59.706Z,47.10
2023-04-08T10:24:28.246Z,42.38
2023-04-08T10:26:56.562Z,51.58
2023-04-08T10:29:27.448Z,47.78
2023-04-08T10:31:57.529Z,49.10
2023-04-08T10:34:27.393Z,47.15
2023-04-08T10:36:59.058Z,47.85
2023-04-08T10:39:27.599Z,50.97
2023-04-08T10:41:56.509Z,48.83
2023-04-08T10:44:28.909Z,43.63
2023-04-08T10:46:57.823Z,44.50
2023-04-08T10:49:34.494Z,47.28
2023-04-08T10:52:08.070Z,44.38
2023-04-08T10:54:37.071Z,37.70
2023-04-08T10:57:06.025Z,44.13
2023-04-08T10:59:34.325Z,49.92
2023-04-08T11:02:02.911Z,41.92
2023-04-08T11:04:31.621Z,44.22
2023-04-08T11:07:00.092Z,48.42
2023-04-08T11:09:28.343Z,41.40
2023-04-08T11:11:56.871Z,43.08
2023-04-08T11:14:26.810Z,43.03
2023-04-08T11:16:55.138Z,45.63
2023-04-08T11:19:24.705Z,45.03
2023-04-08T11:21:53.394Z,43.55
2023-04-08T11:24:22.432Z,47.72
2023-04-08T11:26:51.030Z,45.58
2023-04-08T11:29:19.569Z,45.80
2023-04-08T11:31:49.681Z,41.10
2023-04-08T11:34:25.385Z,39.00
2023-04-08T11:36:53.717Z,45.58
2023-04-08T11:39:24.216Z,47.95
2023-04-08T11:41:53.462Z,40.92
2023-04-08T11:44:32.119Z,40.05
2023-04-08T11:47:02.264Z,39.28
2023-04-08T11:49:45.374Z,43.13
2023-04-08T11:52:13.967Z,48.92
2023-04-08T11:55:00.872Z,38.95
2023-04-08T11:57:30.294Z,45.47
2023-04-08T11:59:58.953Z,37.47
2023-04-08T12:02:27.526Z,37.08
2023-04-08T12:04:55.871Z,38.42
2023-04-08T12:07:24.090Z,43.47
2023-04-08T12:09:52.611Z,40.55
2023-04-08T12:12:20.900Z,39.50
2023-04-08T12:14:49.215Z,39.15
2023-04-08T12:17:17.590Z,38.92
2023-04-08T12:19:46.250Z,33.65
2023-04-08T12:22:14.572Z,35.38
2023-04-08T12:24:42.863Z,34.92
2023-04-08T12:27:11.218Z,31.30
2023-04-08T12:29:40.024Z,35.47
2023-04-08T12:32:08.468Z,35.30
2023-04-08T12:34:37.016Z,33.20
2023-04-08T12:37:05.921Z,33.97
2023-04-08T12:39:34.107Z,33.15
2023-04-08T12:42:02.382Z,34.10
2023-04-08T12:44:30.864Z,31.40
2023-04-08T12:46:59.119Z,30.55
2023-04-08T12:49:28.206Z,34.97
2023-04-08T12:51:56.455Z,33.03
2023-04-08T12:54:24.748Z,34.10
2023-04-08T12:56:52.949Z,36.45
2023-04-08T12:59:21.185Z,26.40
2023-04-08T13:01:49.463Z,29.13
2023-04-08T13:04:18.077Z,32.33
2023-04-08T13:06:46.516Z,27.63
2023-04-08T13:09:15.287Z,28.95
2023-04-08T13:11:43.504Z,26.23
2023-04-08T13:14:13.726Z,26.98
2023-04-08T13:16:41.998Z,30.90
2023-04-08T13:19:10.348Z,29.38
2023-04-08T13:21:38.646Z,27.80
2023-04-08T13:24:07.265Z,30.67
2023-04-08T13:26:35.679Z,25.90
2023-04-08T13:29:04.187Z,28.02
2023-04-08T13:31:32.879Z,28.80
2023-04-08T13:34:01.211Z,31.38
2023-04-08T13:36:29.552Z,27.05
2023-04-08T13:38:57.933Z,29.05
2023-04-08T13:41:28.049Z,26.92
2023-04-08T13:43:56.876Z,29.30
2023-04-08T13:46:25.273Z,28.95
2023-04-08T13:48:54.591Z,31.35
2023-04-08T13:51:23.073Z,23.88
2023-04-08T13:53:51.319Z,31.98
2023-04-08T13:56:19.625Z,26.58
2023-04-08T13:58:55.205Z,29.63
2023-04-08T14:01:26.624Z,28.80
2023-04-08T14:03:54.960Z,31.08
2023-04-08T14:06:23.286Z,34.42
2023-04-08T14:08:51.748Z,29.60
2023-04-08T14:11:21.369Z,29.35
2023-04-08T14:13:49.761Z,29.73
2023-04-08T14:16:18.115Z,25.70
2023-04-08T14:18:46.805Z,31.83
2023-04-08T14:21:16.141Z,33.80
2023-04-08T14:23:44.373Z,27.65
2023-04-08T14:26:12.677Z,28.25
2023-04-08T14:28:41.075Z,28.52
2023-04-08T14:31:09.490Z,27.90
2023-04-08T14:33:39.187Z,22.63
2023-04-08T14:36:08.306Z,21.15
2023-04-08T14:38:36.757Z,25.65
2023-04-08T14:41:05.039Z,26.55
2023-04-08T14:43:33.274Z,25.52
2023-04-08T14:46:01.616Z,25.98
2023-04-08T14:48:30.855Z,25.60
2023-04-08T14:51:00.076Z,26.52
2023-04-08T14:53:28.296Z,24.17
2023-04-08T14:55:56.748Z,26.73
2023-04-08T14:58:25.043Z,26.10
2023-04-08T15:00:53.429Z,24.30
2023-04-08T15:03:22.810Z,25.95
2023-04-08T15:05:58.567Z,23.98
2023-04-08T15:08:27.167Z,25.02
2023-04-08T15:10:55.479Z,24.48
2023-04-08T15:13:23.785Z,23.50
2023-04-08T15:15:52.102Z,18.13
2023-04-08T15:18:20.449Z,18.98
2023-04-08T15:20:48.713Z,11.98
2023-04-08T15:23:17.314Z,10.90
2023-04-08T15:25:46.397Z,9.82
2023-04-08T15:28:14.717Z,10.20
2023-04-08T15:30:44.380Z,19.02
2023-04-08T15:33:12.712Z,20.15
2023-04-08T15:35:41.231Z,17.05
2023-04-08T15:38:09.494Z,14.82
2023-04-08T15:40:37.756Z,11.93
2023-04-08T15:43:06.022Z,10.85
2023-04-08T15:45:34.305Z,7.80
2023-04-08T15:48:02.689Z,13.02
2023-04-08T15:50:31.479Z,8.65
2023-04-08T15:52:59.849Z,15.05
2023-04-08T15:55:28.152Z,13.40
2023-04-08T15:57:57.225Z,13.85
2023-04-08T16:00:26.020Z,15.15
2023-04-08T16:02:54.417Z,15.48
2023-04-08T16:05:22.930Z,15.45
2023-04-08T16:07:51.233Z,13.13
2023-04-08T16:10:19.505Z,17.17
2023-04-08T16:12:47.806Z,19.50
2023-04-08T16:15:16.342Z,18.15
2023-04-08T16:17:49.698Z,18.92
2023-04-08T16:22:50.110Z,16.85
2023-04-08T16:25:18.519Z,21.23
2023-04-08T16:27:47.794Z,16.27
2023-04-08T16:30:16.080Z,19.08
2023-04-08T16:32:44.496Z,17.95
2023-04-08T16:35:13.343Z,18.30
2023-04-08T16:37:41.605Z,19.95
2023-04-08T16:40:10.342Z,21.55
2023-04-08T16:42:38.566Z,18.90
2023-04-08T16:45:07.599Z,20.80
2023-04-08T16:47:35.872Z,21.60
2023-04-08T16:50:05.458Z,20.08
2023-04-08T16:52:33.944Z,19.58
2023-04-08T16:55:02.394Z,17.42
2023-04-08T16:57:30.695Z,19.42
2023-04-08T16:59:59.038Z,19.58
2023-04-08T17:02:27.571Z,18.10
2023-04-08T17:04:56.539Z,17.27
2023-04-08T17:07:25.552Z,13.60
2023-04-08T17:09:56.286Z,19.75
2023-04-08T17:12:24.763Z,16.30
2023-04-08T17:14:53.040Z,16.15
2023-04-08T17:17:21.233Z,17.35
2023-04-08T17:19:49.424Z,19.10
2023-04-08T17:22:17.702Z,19.08
2023-04-08T17:24:47.845Z,19.02
2023-04-08T17:27:16.700Z,17.33
2023-04-08T17:29:45.452Z,15.52
2023-04-08T17:32:13.727Z,18.30
2023-04-08T17:34:42.033Z,16.42
2023-04-08T17:37:10.403Z,18.75
2023-04-08T17:39:40.788Z,20.75
2023-04-08T17:42:09.846Z,17.83
2023-04-08T17:44:38.484Z,18.52
2023-04-08T17:47:06.709Z,16.52
2023-04-08T17:49:35.164Z,17.92
2023-04-08T17:52:03.536Z,18.08
2023-04-08T17:54:34.477Z,19.15
2023-04-08T17:57:03.223Z,18.90
2023-04-08T17:59:31.594Z,17.92
2023-04-08T18:01:59.987Z,16.50
2023-04-08T18:04:29.856Z,17.65
2023-04-08T18:06:58.123Z,18.40
2023-04-08T18:09:26.345Z,18.55
2023-04-08T18:11:54.524Z,20.02
2023-04-08T18:14:22.750Z,19.25
2023-04-08T18:16:51.000Z,20.73
2023-04-08T18:19:19.700Z,19.08
2023-04-08T18:21:47.971Z,19.92
2023-04-08T18:24:16.244Z,20.50
2023-04-08T18:26:45.440Z,22.73
2023-04-08T18:29:17.739Z,19.58
2023-04-08T18:31:46.171Z,21.13
2023-04-08T18:34:14.445Z,19.58
2023-04-08T18:36:42.680Z,17.17
2023-04-08T18:39:11.860Z,16.60
2023-04-08T18:41:40.156Z,20.42
2023-04-08T18:44:08.409Z,17.88
2023-04-08T18:46:36.915Z,17.98
2023-04-08T18:49:05.171Z,20.58
2023-04-08T18:51:34.229Z,21.30
2023-04-08T18:54:02.632Z,16.88
2023-04-08T18:56:31.611Z,18.38
2023-04-08T18:58:59.908Z,20.73
2023-04-08T19:01:31.187Z,22.05
2023-04-08T19:03:59.602Z,26.85
2023-04-08T19:06:28.603Z,21.20
2023-04-08T19:08:56.803Z,23.13
2023-04-08T19:11:28.873Z,20.65
2023-04-08T19:13:57.363Z,22.45
2023-04-08T19:16:26.207Z,21.58
2023-04-08T19:18:54.931Z,21.15
2023-04-08T19:21:23.657Z,25.20
2023-04-08T19:23:52.098Z,23.38
2023-04-08T19:26:21.061Z,20.38
2023-04-08T19:28:49.688Z,21.65
2023-04-08T19:31:18.864Z,23.67
2023-04-08T19:33:47.221Z,20.52
2023-04-08T19:36:15.624Z,22.23
2023-04-08T19:38:43.845Z,21.15
2023-04-08T19:41:12.762Z,23.92
2023-04-08T19:43:41.235Z,22.52
2023-04-08T19:46:09.565Z,23.92
2023-04-08T19:48:38.834Z,20.27
2023-04-08T19:51:08.289Z,22.85
2023-04-08T19:53:36.727Z,22.25
2023-04-08T19:56:05.085Z,25.70
2023-04-08T19:58:33.306Z,22.98
2023-04-08T20:01:02.783Z,22.45
2023-04-08T20:03:31.223Z,22.00
2023-04-08T20:05:59.550Z,24.02
2023-04-08T20:08:28.163Z,21.42
2023-04-08T20:10:56.416Z,21.58
2023-04-08T20:13:24.663Z,21.40
2023-04-08T20:15:53.285Z,22.23
2023-04-08T20:18:21.806Z,22.92
2023-04-08T20:20:50.470Z,23.48
2023-04-08T20:23:18.849Z,20.35
2023-04-08T20:25:47.538Z,24.38
2023-04-08T20:28:15.810Z,21.33
2023-04-08T20:30:44.285Z,20.05
2023-04-08T20:33:12.958Z,21.60
2023-04-08T20:35:41.498Z,20.80
2023-04-08T20:38:10.131Z,20.90
2023-04-08T20:40:44.184Z,20.48
2023-04-08T20:43:12.562Z,22.92
2023-04-08T20:45:41.221Z,23.45
2023-04-08T20:48:09.803Z,20.13
2023-04-08T20:50:38.736Z,20.38
2023-04-08T20:53:07.474Z,21.00
2023-04-08T20:55:35.704Z,20.23
2023-04-08T20:58:07.528Z,21.17
2023-04-08T21:00:36.003Z,22.27
2023-04-08T21:03:04.435Z,18.40
2023-04-08T21:05:36.641Z,16.80
2023-04-08T21:08:05.069Z,17.27
2023-04-08T21:10:33.326Z,22.45
2023-04-08T21:13:01.635Z,21.58
2023-04-08T21:15:30.167Z,20.35
2023-04-08T21:17:58.516Z,18.60
2023-04-08T21:20:26.774Z,19.30
2023-04-08T21:22:55.033Z,21.23
2023-04-08T21:25:23.315Z,17.40
2023-04-08T21:27:51.710Z,19.52
2023-04-08T21:30:21.448Z,19.88
2023-04-08T21:32:49.868Z,19.30
2023-04-08T21:35:18.114Z,18.23
2023-04-08T21:37:46.744Z,18.73
2023-04-08T21:40:14.990Z,20.63
2023-04-08T21:42:43.199Z,16.38
2023-04-08T21:45:11.787Z,20.50
2023-04-08T21:47:40.103Z,19.67
2023-04-08T21:50:08.932Z,19.48
2023-04-08T21:52:37.675Z,17.60
2023-04-08T21:55:06.617Z,17.75
2023-04-08T21:57:35.039Z,16.17
2023-04-08T22:00:08.156Z,18.55
2023-04-08T22:02:43.929Z,19.15
2023-04-08T22:05:12.778Z,18.42
2023-04-08T22:07:40.962Z,21.73
2023-04-08T22:10:09.861Z,18.08
2023-04-08T22:12:38.116Z,20.98
2023-04-08T22:15:07.515Z,21.77
2023-04-08T22:17:35.970Z,22.98
2023-04-08T22:20:04.471Z,23.55
2023-04-08T22:22:32.835Z,25.30
2023-04-08T22:25:01.071Z,20.90
2023-04-08T22:27:29.532Z,22.23
2023-04-08T22:29:57.897Z,23.15
2023-04-08T22:32:26.433Z,23.90
2023-04-08T22:34:54.656Z,20.38
2023-04-08T22:37:22.889Z,23.83
2023-04-08T22:39:51.244Z,21.60
2023-04-08T22:42:19.583Z,19.20
2023-04-08T22:44:47.782Z,22.17
2023-04-08T22:47:16.103Z,24.55
2023-04-08T22:49:44.581Z,20.85
2023-04-08T22:52:12.844Z,24.70
2023-04-08T22:54:41.162Z,22.40
2023-04-08T22:57:09.369Z,20.65
2023-04-08T22:59:37.615Z,23.10
2023-04-08T23:02:06.025Z,22.42
2023-04-08T23:04:34.404Z,24.45
2023-04-08T23:07:02.725Z,23.70
2023-04-08T23:09:30.951Z,21.40
2023-04-08T23:11:59.245Z,21.80
2023-04-08T23:14:27.458Z,22.60
2023-04-08T23:16:56.015Z,22.70
2023-04-08T23:19:24.232Z,19.02
2023-04-08T23:21:52.473Z,17.38
2023-04-08T23:24:20.722Z,19.88
2023-04-08T23:26:48.997Z,15.85
2023-04-08T23:29:17.212Z,17.45
2023-04-08T23:31:45.551Z,17.52
2023-04-08T23:34:13.850Z,17.08
2023-04-08T23:36:42.129Z,23.95
2023-04-08T23:39:10.410Z,18.00
2023-04-08T23:41:38.710Z,14.05
2023-04-08T23:44:07.086Z,14.30
2023-04-08T23:46:35.405Z,12.18
2023-04-08T23:49:03.670Z,13.23
2023-04-08T23:51:31.989Z,13.98
2023-04-08T23:54:00.311Z,14.45
2023-04-08T23:56:28.747Z,13.07
2023-04-08T23:58:57.077Z,13.55
